createdAt,value
2023-05-01T00:00:58.365Z,73.82
2023-05-01T00:03:25.470Z,74.10
2023-05-01T00:05:52.432Z,74.36
2023-05-01T00:08:19.277Z,74.46
2023-05-01T00:10:47.000Z,74.10
2023-05-01T00:13:14.066Z,74.08
2023-05-01T00:15:42.392Z,74.76
2023-05-01T00:18:09.370Z,74.94
2023-05-01T00:20:36.232Z,74.72
2023-05-01T00:23:03.190Z,74.81
2023-05-01T00:25:30.690Z,75.32
2023-05-01T00:27:58.736Z,74.70
2023-05-01T00:30:25.875Z,74.70
2023-05-01T00:32:52.791Z,75.53
2023-05-01T00:35:19.860Z,75.52
2023-05-01T00:37:47.038Z,75.22
2023-05-01T00:40:13.935Z,75.58
2023-05-01T00:42:40.955Z,75.42
2023-05-01T00:45:08.425Z,75.44
2023-05-01T00:47:38.920Z,75.96
2023-05-01T00:50:06.671Z,75.82
2023-05-01T00:52:33.912Z,75.40
2023-05-01T00:55:00.938Z,75.95
2023-05-01T00:57:27.941Z,75.80
2023-05-01T00:59:55.113Z,75.79
2023-05-01T01:02:22.631Z,76.14
2023-05-01T01:04:49.940Z,76.22
2023-05-01T01:07:37.148Z,76.27
2023-05-01T01:10:18.521Z,76.36
2023-05-01T01:13:11.586Z,76.46
2023-05-01T01:15:51.215Z,75.78
2023-05-01T01:18:42.670Z,76.51
2023-05-01T01:21:20.613Z,76.54
2023-05-01T01:24:01.996Z,76.05
2023-05-01T01:26:45.722Z,76.36
2023-05-01T01:29:21.516Z,76.58
2023-05-01T01:32:02.286Z,76.60
2023-05-01T01:34:39.754Z,76.59
2023-05-01T01:37:19.909Z,77.06
2023-05-01T01:39:55.491Z,76.46
2023-05-01T01:42:29.577Z,76.80
2023-05-01T01:45:03.081Z,77.06
2023-05-01T01:47:33.336Z,77.18
2023-05-01T01:50:04.509Z,76.59
2023-05-01T01:52:33.256Z,77.09
2023-05-01T01:55:07.332Z,77.41
2023-05-01T01:57:36.783Z,77.14
2023-05-01T02:00:09.087Z,77.57
2023-05-01T02:02:39.133Z,77.54
2023-05-01T02:05:07.750Z,77.38
2023-05-01T02:07:37.904Z,77.81
2023-05-01T02:10:06.088Z,77.40
2023-05-01T02:12:34.405Z,77.70
2023-05-01T02:15:02.676Z,77.58
2023-05-01T02:17:30.836Z,77.44
2023-05-01T02:19:57.932Z,77.67
2023-05-01T02:22:26.893Z,77.62
2023-05-01T02:24:56.762Z,77.63
2023-05-01T02:27:25.084Z,77.92
2023-05-01T02:29:53.743Z,78.09
2023-05-01T02:32:20.790Z,78.37
2023-05-01T02:34:47.662Z,78.28
2023-05-01T02:37:14.808Z,78.39
2023-05-01T02:39:41.960Z,78.38
2023-05-01T02:42:10.144Z,78.47
2023-05-01T02:44:47.371Z,78.36
2023-05-01T02:47:20.186Z,78.48
2023-05-01T02:49:49.010Z,78.55
2023-05-01T02:52:20.828Z,78.67
2023-05-01T02:54:48.073Z,78.46
2023-05-01T02:57:17.871Z,78.58
2023-05-01T02:59:44.708Z,78.74
2023-05-01T03:02:11.705Z,78.49
2023-05-01T03:04:38.685Z,78.55
2023-05-01T03:07:05.638Z,78.61
2023-05-01T03:09:32.522Z,78.44
2023-05-01T03:11:59.383Z,78.57
2023-05-01T03:14:27.832Z,78.60
2023-05-01T03:16:56.028Z,78.55
2023-05-01T03:19:22.964Z,78.59
2023-05-01T03:21:50.152Z,78.47
2023-05-01T03:24:17.139Z,78.77
2023-05-01T03:26:44.072Z,78.83
2023-05-01T03:29:13.433Z,78.77
2023-05-01T03:31:40.409Z,78.99
2023-05-01T03:34:07.550Z,78.85
2023-05-01T03:36:34.563Z,78.95
2023-05-01T03:39:01.458Z,78.95
2023-05-01T03:41:28.434Z,79.27
2023-05-01T03:43:55.308Z,79.03
2023-05-01T03:46:45.156Z,79.36
2023-05-01T03:49:12.773Z,79.38
2023-05-01T03:51:39.562Z,79.35
2023-05-01T03:54:06.519Z,79.33
2023-05-01T03:56:35.896Z,79.61
2023-05-01T03:59:03.129Z,79.59
2023-05-01T04:01:30.099Z,79.65
2023-05-01T04:03:57.003Z,79.79
2023-05-01T04:06:24.063Z,79.49
2023-05-01T04:08:50.915Z,79.63
2023-05-01T04:11:17.816Z,79.69
2023-05-01T04:13:44.612Z,79.69
2023-05-01T04:16:11.422Z,79.76
2023-05-01T04:18:38.366Z,80.33
2023-05-01T04:21:05.296Z,79.95
2023-05-01T04:23:32.175Z,79.75
2023-05-01T04:25:59.039Z,78.71
2023-05-01T04:28:26.584Z,78.98
2023-05-01T04:30:53.554Z,78.31
2023-05-01T04:33:20.451Z,77.95
2023-05-01T04:35:47.289Z,77.62
2023-05-01T04:38:14.119Z,77.02
2023-05-01T04:40:41.196Z,76.44
2023-05-01T04:43:07.964Z,75.94
2023-05-01T04:45:34.905Z,75.45
2023-05-01T04:48:01.820Z,75.07
2023-05-01T04:50:28.780Z,75.08
2023-05-01T04:52:55.610Z,74.59
2023-05-01T04:55:22.984Z,73.53
2023-05-01T04:57:49.823Z,73.33
2023-05-01T05:00:19.124Z,72.96
2023-05-01T05:02:46.773Z,72.35
2023-05-01T05:05:13.885Z,71.75
2023-05-01T05:07:41.722Z,71.39
2023-05-01T05:10:08.761Z,70.42
2023-05-01T05:12:35.596Z,69.52
2023-05-01T05:15:02.452Z,68.38
2023-05-01T05:17:29.320Z,67.61
2023-05-01T05:19:56.531Z,66.38
2023-05-01T05:22:24.111Z,65.69
2023-05-01T05:25:04.225Z,65.17
2023-05-01T05:27:36.720Z,65.13
2023-05-01T05:30:08.165Z,64.78
2023-05-01T05:32:35.077Z,63.59
2023-05-01T05:35:02.229Z,62.95
2023-05-01T05:37:29.097Z,62.31
2023-05-01T05:39:56.357Z,61.34
2023-05-01T05:42:23.625Z,60.68
2023-05-01T05:44:50.531Z,59.55
2023-05-01T05:47:17.409Z,58.50
2023-05-01T05:49:44.320Z,57.81
2023-05-01T05:52:11.216Z,57.56
2023-05-01T05:54:38.022Z,54.47
2023-05-01T05:57:04.846Z,53.08
2023-05-01T05:59:31.999Z,51.49
2023-05-01T06:01:59.471Z,49.80
2023-05-01T06:04:26.237Z,47.09
2023-05-01T06:07:02.916Z,45.14
2023-05-01T06:09:42.088Z,41.72
2023-05-01T06:12:45.133Z,40.37
2023-05-01T06:15:17.115Z,39.10
2023-05-01T06:17:44.274Z,38.90
2023-05-01T06:20:11.724Z,39.28
2023-05-01T06:22:38.577Z,39.00
2023-05-01T06:25:07.188Z,39.54
2023-05-01T06:27:34.013Z,39.80
2023-05-01T06:30:01.104Z,39.75
2023-05-01T06:32:28.053Z,39.99
2023-05-01T06:34:54.928Z,40.16
2023-05-01T06:37:21.777Z,40.49
2023-05-01T06:39:48.838Z,41.36
2023-05-01T06:42:17.052Z,42.18
2023-05-01T06:44:44.401Z,42.06
2023-05-01T06:47:11.429Z,42.85
2023-05-01T06:49:38.571Z,42.99
2023-05-01T06:52:05.440Z,42.96
2023-05-01T06:54:32.385Z,42.42
2023-05-01T06:56:59.190Z,42.47
2023-05-01T06:59:26.025Z,43.05
2023-05-01T07:01:53.799Z,42.86
2023-05-01T07:04:20.660Z,42.49
2023-05-01T07:06:47.712Z,41.82
2023-05-01T07:09:14.666Z,41.04
2023-05-01T07:11:42.882Z,41.34
2023-05-01T07:14:09.941Z,40.83
2023-05-01T07:16:36.815Z,39.89
2023-05-01T07:19:04.209Z,40.41
2023-05-01T07:21:32.544Z,39.94
2023-05-01T07:23:59.932Z,39.49
2023-05-01T07:26:27.633Z,39.74
2023-05-01T07:28:54.705Z,39.76
2023-05-01T07:31:22.874Z,38.67
2023-05-01T07:33:50.930Z,38.32
2023-05-01T07:36:20.534Z,38.95
2023-05-01T07:38:48.189Z,38.65
2023-05-01T07:41:15.044Z,39.40
2023-05-01T07:43:41.882Z,39.84
2023-05-01T07:46:08.765Z,39.88
2023-05-01T07:48:50.050Z,39.56
2023-05-01T07:52:14.322Z,38.60
2023-05-01T07:54:42.541Z,38.99
2023-05-01T08:01:08.197Z,39.08
2023-05-01T08:03:35.563Z,39.90
2023-05-01T08:06:23.164Z,39.36
2023-05-01T08:08:50.107Z,39.47
2023-05-01T08:11:17.351Z,40.01
2023-05-01T08:13:44.093Z,39.53
2023-05-01T08:16:11.053Z,40.47
2023-05-01T08:18:38.002Z,39.63
2023-05-01T08:21:04.896Z,40.12
2023-05-01T08:23:31.965Z,40.91
2023-05-01T08:25:58.935Z,40.73
2023-05-01T08:28:25.809Z,41.33
2023-05-01T08:30:52.770Z,42.36
2023-05-01T08:33:19.684Z,42.11
2023-05-01T08:35:46.490Z,41.64
2023-05-01T08:38:13.496Z,42.42
2023-05-01T08:40:44.472Z,42.12
2023-05-01T08:43:13.502Z,42.68
2023-05-01T08:45:42.674Z,42.16
2023-05-01T08:48:10.990Z,42.38
2023-05-01T08:50:39.742Z,41.67
2023-05-01T08:53:06.930Z,41.05
2023-05-01T08:55:36.688Z,41.42
2023-05-01T08:58:05.929Z,41.12
2023-05-01T09:00:34.557Z,40.54
2023-05-01T09:03:05.652Z,41.17
2023-05-01T09:05:33.736Z,41.85
2023-05-01T09:08:01.477Z,41.48
2023-05-01T09:10:31.763Z,40.73
2023-05-01T09:13:11.356Z,40.92
2023-05-01T09:15:39.058Z,40.56
2023-05-01T09:18:06.211Z,39.90
2023-05-01T09:20:37.320Z,39.55
2023-05-01T09:23:04.384Z,39.57
2023-05-01T09:25:31.602Z,39.43
2023-05-01T09:27:58.519Z,39.68
2023-05-01T09:30:33.219Z,39.85
2023-05-01T09:33:30.009Z,39.95
2023-05-01T09:39:23.998Z,39.36
2023-05-01T09:41:55.755Z,39.17
2023-05-01T09:44:22.912Z,39.09
2023-05-01T09:46:50.305Z,39.65
2023-05-01T09:49:17.766Z,40.44
2023-05-01T09:51:44.945Z,39.91
2023-05-01T09:55:10.181Z,39.19
2023-05-01T09:57:40.313Z,39.79
2023-05-01T10:00:08.837Z,39.82
2023-05-01T10:07:05.069Z,39.67
2023-05-01T10:17:55.045Z,39.26
2023-05-01T10:20:55.773Z,38.67
2023-05-01T10:24:42.892Z,37.66
2023-05-01T10:31:23.801Z,38.43
2023-05-01T10:34:03.170Z,38.02
2023-05-01T10:36:39.342Z,38.34
2023-05-01T10:39:07.306Z,38.84
2023-05-01T10:42:05.008Z,39.01
2023-05-01T10:45:08.899Z,38.29
2023-05-01T10:47:35.911Z,37.95
2023-05-01T10:50:09.788Z,37.70
2023-05-01T10:53:12.058Z,38.21
2023-05-01T10:55:40.207Z,38.60
2023-05-01T10:58:07.032Z,38.67
2023-05-01T11:00:34.474Z,37.82
2023-05-01T11:03:24.599Z,37.80
2023-05-01T11:06:01.082Z,38.40
2023-05-01T11:08:39.054Z,38.55
2023-05-01T11:11:19.704Z,38.14
2023-05-01T11:14:01.711Z,36.88
2023-05-01T11:16:41.838Z,37.01
2023-05-01T11:19:10.020Z,37.48
2023-05-01T11:21:39.594Z,36.71
2023-05-01T11:24:07.121Z,37.00
2023-05-01T11:26:38.451Z,37.09
2023-05-01T11:29:06.322Z,37.04
2023-05-01T11:31:33.639Z,36.49
2023-05-01T11:34:01.120Z,36.72
2023-05-01T11:36:29.362Z,37.12
2023-05-01T11:39:00.113Z,36.87
2023-05-01T11:41:27.710Z,37.68
2023-05-01T11:43:57.827Z,38.20
2023-05-01T11:46:28.407Z,38.09
2023-05-01T11:49:00.158Z,38.01
2023-05-01T11:51:28.320Z,37.69
2023-05-01T11:54:06.176Z,37.96
2023-05-01T11:56:34.646Z,38.33
2023-05-01T11:59:13.018Z,38.44
2023-05-01T12:01:42.110Z,38.57
2023-05-01T12:04:09.461Z,38.80
2023-05-01T12:06:45.864Z,38.09
2023-05-01T12:09:27.151Z,38.55
2023-05-01T12:11:54.605Z,37.96
2023-05-01T12:14:22.370Z,38.09
2023-05-01T12:16:50.275Z,37.85
2023-05-01T12:19:18.334Z,37.92
2023-05-01T12:21:45.184Z,37.88
2023-05-01T12:24:18.833Z,37.60
2023-05-01T12:26:46.597Z,38.31
2023-05-01T12:29:13.870Z,36.52
2023-05-01T12:31:49.312Z,36.85
2023-05-01T12:34:16.538Z,36.60
2023-05-01T12:36:53.548Z,37.42
2023-05-01T12:39:21.112Z,36.82
2023-05-01T12:41:51.987Z,38.30
2023-05-01T12:44:22.588Z,38.87
2023-05-01T12:46:56.550Z,38.27
2023-05-01T13:03:19.017Z,37.08
2023-05-01T13:06:25.432Z,36.19
2023-05-01T13:09:36.723Z,35.94
2023-05-01T13:12:49.135Z,35.58
2023-05-01T13:16:08.567Z,35.12
2023-05-01T13:19:19.549Z,35.26
2023-05-01T13:22:31.727Z,35.18
2023-05-01T13:25:43.194Z,35.67
2023-05-01T13:28:56.046Z,36.05
2023-05-01T13:32:22.612Z,35.91
2023-05-01T13:35:50.746Z,36.10
2023-05-01T13:39:05.547Z,36.41
2023-05-01T13:42:10.775Z,35.35
2023-05-01T13:45:44.178Z,35.72
2023-05-01T13:49:11.897Z,35.64
2023-05-01T13:52:25.008Z,35.97
2023-05-01T13:55:37.875Z,35.40
2023-05-01T13:59:05.579Z,35.64
2023-05-01T14:02:17.562Z,35.07
2023-05-01T14:05:37.705Z,35.40
2023-05-01T14:08:57.460Z,35.40
2023-05-01T14:12:16.679Z,35.30
2023-05-01T14:15:27.439Z,34.98
2023-05-01T14:18:46.767Z,34.27
2023-05-01T14:21:47.181Z,34.28
2023-05-01T14:25:17.801Z,34.33
2023-05-01T14:28:29.101Z,34.10
2023-05-01T14:31:51.660Z,34.16
2023-05-01T14:35:13.908Z,34.59
2023-05-01T14:38:25.690Z,33.97
2023-05-01T14:41:38.277Z,33.65
2023-05-01T14:44:49.758Z,33.86
2023-05-01T14:48:02.055Z,33.48
2023-05-01T14:51:14.927Z,34.16
2023-05-01T14:54:43.048Z,34.14
2023-05-01T14:57:55.610Z,34.68
2023-05-01T15:01:07.527Z,33.98
2023-05-01T15:04:18.858Z,33.62
2023-05-01T15:07:30.806Z,33.81
2023-05-01T15:10:42.868Z,34.24
2023-05-01T15:14:02.249Z,33.98
2023-05-01T15:17:01.278Z,34.76
2023-05-01T15:20:12.133Z,34.69
2023-05-01T15:23:25.932Z,34.79
2023-05-01T15:26:38.489Z,35.31
2023-05-01T15:29:58.840Z,35.41
2023-05-01T15:33:19.344Z,35.15
2023-05-01T15:36:31.757Z,35.11
2023-05-01T15:39:44.979Z,35.14
2023-05-01T15:43:05.522Z,35.86
2023-05-01T15:46:18.216Z,35.78
2023-05-01T15:49:33.609Z,35.69
2023-05-01T15:52:54.022Z,35.74
2023-05-01T15:56:07.587Z,36.02
2023-05-01T15:59:19.325Z,36.32
2023-05-01T16:02:31.782Z,36.68
2023-05-01T16:05:43.555Z,36.84
2023-05-01T16:08:55.575Z,37.09
2023-05-01T16:12:16.649Z,37.19
2023-05-01T16:15:30.585Z,37.86
2023-05-01T16:18:35.275Z,38.03
2023-05-01T16:21:51.988Z,38.32
2023-05-01T16:25:12.193Z,38.39
2023-05-01T16:28:24.034Z,38.70
2023-05-01T16:31:42.564Z,39.10
2023-05-01T16:34:50.361Z,39.16
2023-05-01T16:38:09.961Z,39.56
2023-05-01T16:41:20.839Z,39.63
2023-05-01T16:44:31.614Z,40.11
2023-05-01T16:47:42.497Z,40.07
2023-05-01T16:50:53.394Z,40.17
2023-05-01T16:54:05.714Z,40.21
2023-05-01T16:57:17.861Z,40.62
2023-05-01T17:00:30.725Z,40.42
2023-05-01T17:03:43.649Z,40.18
2023-05-01T17:07:04.107Z,39.93
2023-05-01T17:10:18.058Z,40.18
2023-05-01T17:13:30.033Z,40.20
2023-05-01T17:16:42.603Z,40.09
2023-05-01T17:20:10.414Z,40.50
2023-05-01T17:23:21.444Z,40.15
2023-05-01T17:26:33.059Z,40.35
2023-05-01T17:29:46.295Z,40.44
2023-05-01T17:32:53.959Z,40.21
2023-05-01T17:36:06.266Z,40.41
2023-05-01T17:39:11.813Z,40.43
2023-05-01T17:42:23.389Z,40.49
2023-05-01T17:45:34.547Z,40.52
2023-05-01T17:48:45.638Z,40.85
2023-05-01T17:52:13.265Z,40.89
2023-05-01T17:55:25.401Z,40.83
2023-05-01T17:58:39.424Z,41.31
2023-05-01T18:01:59.177Z,41.22
2023-05-01T18:05:10.581Z,41.46
2023-05-01T18:08:30.706Z,41.56
2023-05-01T18:11:43.672Z,41.71
2023-05-01T18:14:55.938Z,41.71
2023-05-01T18:18:09.677Z,41.92
2023-05-01T18:21:37.285Z,42.25
2023-05-01T18:24:41.646Z,42.45
2023-05-01T18:27:54.084Z,42.43
2023-05-01T18:31:14.678Z,42.52
2023-05-01T18:34:35.206Z,42.72
2023-05-01T18:37:48.682Z,42.90
2023-05-01T18:41:15.258Z,43.08
2023-05-01T18:44:27.848Z,43.26
2023-05-01T18:47:39.460Z,43.42
2023-05-01T18:51:08.375Z,43.77
2023-05-01T18:54:20.353Z,43.96
2023-05-01T18:57:31.947Z,44.22
2023-05-01T19:00:44.236Z,44.41
2023-05-01T19:04:00.573Z,44.43
2023-05-01T19:07:14.477Z,44.64
2023-05-01T19:10:25.780Z,44.82
2023-05-01T19:13:53.554Z,45.00
2023-05-01T19:17:04.422Z,45.07
2023-05-01T19:20:15.457Z,45.29
2023-05-01T19:23:26.669Z,45.51
2023-05-01T19:26:45.807Z,46.12
2023-05-01T19:30:06.245Z,46.85
2023-05-01T19:33:20.123Z,47.99
2023-05-01T19:36:33.196Z,48.52
2023-05-01T19:39:46.055Z,49.30
2023-05-01T19:43:13.637Z,50.02
2023-05-01T19:46:24.809Z,51.07
2023-05-01T19:49:35.693Z,51.48
2023-05-01T19:52:48.126Z,51.95
2023-05-01T19:55:59.335Z,52.43
2023-05-01T19:59:10.520Z,53.01
2023-05-01T20:02:31.176Z,53.75
2023-05-01T20:05:51.126Z,54.38
2023-05-01T20:08:51.492Z,55.05
2023-05-01T20:12:02.869Z,55.58
2023-05-01T20:15:14.657Z,55.83
2023-05-01T20:18:26.733Z,56.25
2023-05-01T20:21:39.832Z,56.58
2023-05-01T20:24:51.781Z,56.93
2023-05-01T20:28:10.923Z,57.27
2023-05-01T20:31:24.121Z,57.70
2023-05-01T20:34:37.073Z,58.23
2023-05-01T20:37:50.388Z,57.98
2023-05-01T20:41:10.078Z,58.61
2023-05-01T20:44:17.255Z,59.13
2023-05-01T20:47:29.648Z,59.03
2023-05-01T20:50:48.950Z,59.52
2023-05-01T20:54:02.040Z,59.56
2023-05-01T20:57:15.773Z,59.94
2023-05-01T21:00:29.858Z,60.30
2023-05-01T21:03:41.601Z,60.50
2023-05-01T21:06:52.773Z,60.86
2023-05-01T21:10:15.073Z,61.07
2023-05-01T21:13:25.924Z,61.13
2023-05-01T21:16:37.905Z,61.55
2023-05-01T21:19:58.719Z,61.79
2023-05-01T21:23:11.068Z,62.08
2023-05-01T21:26:22.370Z,62.53
2023-05-01T21:29:40.164Z,63.08
2023-05-01T21:32:58.450Z,63.26
2023-05-01T21:36:12.900Z,63.63
2023-05-01T21:39:26.752Z,63.91
2023-05-01T21:42:45.877Z,64.05
2023-05-01T21:45:59.796Z,64.50
2023-05-01T21:49:19.072Z,64.71
2023-05-01T21:52:38.291Z,65.27
2023-05-01T21:55:50.332Z,65.30
2023-05-01T21:59:01.218Z,65.60
2023-05-01T22:02:03.264Z,65.69
2023-05-01T22:05:23.495Z,65.98
2023-05-01T22:08:23.902Z,66.10
2023-05-01T22:11:43.305Z,66.20
2023-05-01T22:14:54.481Z,66.45
2023-05-01T22:18:12.336Z,66.71
2023-05-01T22:21:20.220Z,66.87
2023-05-01T22:24:48.687Z,66.89
2023-05-01T22:28:00.967Z,67.10
2023-05-01T22:30:59.959Z,67.19
2023-05-01T22:34:09.260Z,67.43
2023-05-01T22:37:29.490Z,67.57
2023-05-01T22:40:50.292Z,68.00
2023-05-01T22:44:01.385Z,67.97
2023-05-01T22:46:48.869Z,68.25
2023-05-01T22:50:01.666Z,68.36
2023-05-01T22:53:21.243Z,68.22
2023-05-01T22:56:46.296Z,68.56
2023-05-01T22:59:58.397Z,68.55
2023-05-01T23:03:26.281Z,68.82
2023-05-01T23:06:37.514Z,69.35
2023-05-01T23:09:56.898Z,69.47
2023-05-01T23:13:11.708Z,69.61
2023-05-01T23:16:22.609Z,70.06
2023-05-01T23:19:41.915Z,69.62
2023-05-01T23:23:08.490Z,70.14
2023-05-01T23:26:19.757Z,70.10
2023-05-01T23:29:47.400Z,70.12
2023-05-01T23:32:58.783Z,70.52
2023-05-01T23:36:20.021Z,70.96
2023-05-01T23:43:06.172Z,70.67
2023-05-01T23:46:18.965Z,71.58
2023-05-01T23:49:38.233Z,71.07
2023-05-01T23:52:50.031Z,71.44
2023-05-01T23:56:03.542Z,72.03
2023-05-01T23:59:15.337Z,71.84
